sensor_id;sensor_type;location;lat;lon;timestamp;temperature;humidity
39695;DHT22;25367;-35.352;149.036;2023-05-20T00:02:26;18.00;52.90
39695;DHT22;25367;-35.352;149.036;2023-05-20T00:04:56;18.00;52.90
39695;DHT22;25367;-35.352;149.036;2023-05-20T00:07:27;18.00;52.90
39695;DHT22;25367;-35.352;149.036;2023-05-20T00:09:57;18.00;52.90
39695;DHT22;25367;-35.352;149.036;2023-05-20T00:12:27;18.00;52.90
39695;DHT22;25367;-35.352;149.036;2023-05-20T00:14:58;18.00;53.00
39695;DHT22;25367;-35.352;149.036;2023-05-20T00:17:28;18.00;53.00
39695;DHT22;25367;-35.352;149.036;2023-05-20T00:19:58;18.00;53.00
39695;DHT22;25367;-35.352;149.036;2023-05-20T00:22:30;18.00;53.00
39695;DHT22;25367;-35.352;149.036;2023-05-20T00:24:59;18.00;53.10
39695;DHT22;25367;-35.352;149.036;2023-05-20T00:27:29;18.00;53.20
39695;DHT22;25367;-35.352;149.036;2023-05-20T00:29:59;18.00;53.30
39695;DHT22;25367;-35.352;149.036;2023-05-20T00:32:29;18.00;53.40
39695;DHT22;25367;-35.352;149.036;2023-05-20T00:34:59;18.00;53.50
39695;DHT22;25367;-35.352;149.036;2023-05-20T00:37:31;18.00;53.60
39695;DHT22;25367;-35.352;149.036;2023-05-20T00:40:01;18.00;53.50
39695;DHT22;25367;-35.352;149.036;2023-05-20T00:42:30;18.00;53.60
39695;DHT22;25367;-35.352;149.036;2023-05-20T00:45:00;18.00;53.60
39695;DHT22;25367;-35.352;149.036;2023-05-20T00:47:31;18.10;53.60
39695;DHT22;25367;-35.352;149.036;2023-05-20T00:50:02;18.00;53.60
39695;DHT22;25367;-35.352;149.036;2023-05-20T00:52:34;18.10;53.70
39695;DHT22;25367;-35.352;149.036;2023-05-20T00:55:05;18.10;53.70
39695;DHT22;25367;-35.352;149.036;2023-05-20T00:57:35;18.10;53.80
39695;DHT22;25367;-35.352;149.036;2023-05-20T01:00:06;18.10;53.80
39695;DHT22;25367;-35.352;149.036;2023-05-20T01:02:36;18.10;54.00
39695;DHT22;25367;-35.352;149.036;2023-05-20T01:05:06;18.20;54.10
39695;DHT22;25367;-35.352;149.036;2023-05-20T01:07:38;18.20;54.10
39695;DHT22;25367;-35.352;149.036;2023-05-20T01:10:08;18.20;54.10
39695;DHT22;25367;-35.352;149.036;2023-05-20T01:12:41;18.20;54.10
39695;DHT22;25367;-35.352;149.036;2023-05-20T01:15:12;18.20;54.10
39695;DHT22;25367;-35.352;149.036;2023-05-20T01:17:45;18.20;54.10
39695;DHT22;25367;-35.352;149.036;2023-05-20T01:20:15;18.20;54.10
39695;DHT22;25367;-35.352;149.036;2023-05-20T01:22:53;18.30;54.10
39695;DHT22;25367;-35.352;149.036;2023-05-20T01:25:23;18.30;54.00
39695;DHT22;25367;-35.352;149.036;2023-05-20T01:27:53;18.30;54.00
39695;DHT22;25367;-35.352;149.036;2023-05-20T01:30:23;18.30;54.60
39695;DHT22;25367;-35.352;149.036;2023-05-20T01:32:57;18.30;54.00
39695;DHT22;25367;-35.352;149.036;2023-05-20T01:35:28;18.30;54.00
39695;DHT22;25367;-35.352;149.036;2023-05-20T01:38:04;18.30;54.00
39695;DHT22;25367;-35.352;149.036;2023-05-20T01:40:34;18.40;54.00
39695;DHT22;25367;-35.352;149.036;2023-05-20T01:43:04;18.40;54.00
39695;DHT22;25367;-35.352;149.036;2023-05-20T01:45:34;18.30;53.90
39695;DHT22;25367;-35.352;149.036;2023-05-20T01:48:03;18.30;53.90
39695;DHT22;25367;-35.352;149.036;2023-05-20T01:50:33;18.40;53.90
39695;DHT22;25367;-35.352;149.036;2023-05-20T01:53:06;18.40;53.90
39695;DHT22;25367;-35.352;149.036;2023-05-20T01:55:35;18.40;53.90
39695;DHT22;25367;-35.352;149.036;2023-05-20T01:58:04;18.40;53.80
39695;DHT22;25367;-35.352;149.036;2023-05-20T02:00:34;18.30;54.10
39695;DHT22;25367;-35.352;149.036;2023-05-20T02:03:03;18.40;54.00
39695;DHT22;25367;-35.352;149.036;2023-05-20T02:05:33;18.40;54.00
39695;DHT22;25367;-35.352;149.036;2023-05-20T02:08:04;18.40;54.00
39695;DHT22;25367;-35.352;149.036;2023-05-20T02:10:34;18.40;54.00
39695;DHT22;25367;-35.352;149.036;2023-05-20T02:13:03;18.40;54.00
39695;DHT22;25367;-35.352;149.036;2023-05-20T02:15:34;18.50;54.20
39695;DHT22;25367;-35.352;149.036;2023-05-20T02:18:04;18.50;54.10
39695;DHT22;25367;-35.352;149.036;2023-05-20T02:20:35;18.50;54.10
39695;DHT22;25367;-35.352;149.036;2023-05-20T02:23:08;18.50;54.10
39695;DHT22;25367;-35.352;149.036;2023-05-20T02:25:39;18.50;54.10
39695;DHT22;25367;-35.352;149.036;2023-05-20T02:28:08;18.50;54.10
39695;DHT22;25367;-35.352;149.036;2023-05-20T02:30:38;18.50;54.00
39695;DHT22;25367;-35.352;149.036;2023-05-20T02:33:08;18.50;54.00
39695;DHT22;25367;-35.352;149.036;2023-05-20T02:35:38;18.50;54.00
39695;DHT22;25367;-35.352;149.036;2023-05-20T02:38:11;18.60;54.10
39695;DHT22;25367;-35.352;149.036;2023-05-20T02:40:43;18.60;54.10
39695;DHT22;25367;-35.352;149.036;2023-05-20T02:43:12;18.60;54.10
39695;DHT22;25367;-35.352;149.036;2023-05-20T02:45:42;18.60;54.10
39695;DHT22;25367;-35.352;149.036;2023-05-20T02:48:12;18.60;54.20
39695;DHT22;25367;-35.352;149.036;2023-05-20T02:50:41;18.60;54.20
39695;DHT22;25367;-35.352;149.036;2023-05-20T02:53:14;18.60;54.20
39695;DHT22;25367;-35.352;149.036;2023-05-20T02:55:46;18.70;54.20
39695;DHT22;25367;-35.352;149.036;2023-05-20T02:58:16;18.70;54.30
39695;DHT22;25367;-35.352;149.036;2023-05-20T03:00:46;18.70;54.40
39695;DHT22;25367;-35.352;149.036;2023-05-20T03:03:15;18.70;54.30
39695;DHT22;25367;-35.352;149.036;2023-05-20T03:05:45;18.70;54.30
39695;DHT22;25367;-35.352;149.036;2023-05-20T03:08:17;18.70;54.30
39695;DHT22;25367;-35.352;149.036;2023-05-20T03:10:47;18.80;54.40
39695;DHT22;25367;-35.352;149.036;2023-05-20T03:13:17;18.80;54.40
39695;DHT22;25367;-35.352;149.036;2023-05-20T03:15:47;18.80;54.50
39695;DHT22;25367;-35.352;149.036;2023-05-20T03:18:16;18.80;54.40
39695;DHT22;25367;-35.352;149.036;2023-05-20T03:20:47;18.80;54.40
39695;DHT22;25367;-35.352;149.036;2023-05-20T03:23:19;18.90;54.50
39695;DHT22;25367;-35.352;149.036;2023-05-20T03:25:49;18.90;54.50
39695;DHT22;25367;-35.352;149.036;2023-05-20T03:28:18;18.90;54.50
39695;DHT22;25367;-35.352;149.036;2023-05-20T03:30:48;18.90;54.50
39695;DHT22;25367;-35.352;149.036;2023-05-20T03:33:19;18.90;54.50
39695;DHT22;25367;-35.352;149.036;2023-05-20T03:35:48;18.90;54.50
39695;DHT22;25367;-35.352;149.036;2023-05-20T03:38:21;18.90;54.50
39695;DHT22;25367;-35.352;149.036;2023-05-20T03:40:50;19.00;54.50
39695;DHT22;25367;-35.352;149.036;2023-05-20T03:43:20;19.00;54.50
39695;DHT22;25367;-35.352;149.036;2023-05-20T03:45:49;19.00;54.50
39695;DHT22;25367;-35.352;149.036;2023-05-20T03:48:19;19.00;54.50
39695;DHT22;25367;-35.352;149.036;2023-05-20T03:50:49;19.00;54.50
39695;DHT22;25367;-35.352;149.036;2023-05-20T03:53:22;19.00;54.60
39695;DHT22;25367;-35.352;149.036;2023-05-20T03:55:51;19.10;54.80
39695;DHT22;25367;-35.352;149.036;2023-05-20T03:58:21;19.10;54.90
39695;DHT22;25367;-35.352;149.036;2023-05-20T04:00:52;19.20;54.90
39695;DHT22;25367;-35.352;149.036;2023-05-20T04:03:21;19.20;54.80
39695;DHT22;25367;-35.352;149.036;2023-05-20T04:05:51;19.30;54.60
39695;DHT22;25367;-35.352;149.036;2023-05-20T04:08:25;19.30;54.60
39695;DHT22;25367;-35.352;149.036;2023-05-20T04:10:56;19.30;54.50
39695;DHT22;25367;-35.352;149.036;2023-05-20T04:13:29;19.40;54.50
39695;DHT22;25367;-35.352;149.036;2023-05-20T04:15:59;19.40;54.50
39695;DHT22;25367;-35.352;149.036;2023-05-20T04:18:29;19.40;54.50
39695;DHT22;25367;-35.352;149.036;2023-05-20T04:20:58;19.40;54.50
39695;DHT22;25367;-35.352;149.036;2023-05-20T04:23:30;19.40;54.50
39695;DHT22;25367;-35.352;149.036;2023-05-20T04:25:59;19.50;54.50
39695;DHT22;25367;-35.352;149.036;2023-05-20T04:28:29;19.50;54.60
39695;DHT22;25367;-35.352;149.036;2023-05-20T04:31:02;19.50;54.60
39695;DHT22;25367;-35.352;149.036;2023-05-20T04:33:32;19.60;54.60
39695;DHT22;25367;-35.352;149.036;2023-05-20T04:36:02;19.50;54.50
39695;DHT22;25367;-35.352;149.036;2023-05-20T04:38:36;19.60;54.60
39695;DHT22;25367;-35.352;149.036;2023-05-20T04:41:06;19.60;54.60
39695;DHT22;25367;-35.352;149.036;2023-05-20T04:43:35;19.60;54.50
39695;DHT22;25367;-35.352;149.036;2023-05-20T04:46:05;19.60;54.60
39695;DHT22;25367;-35.352;149.036;2023-05-20T04:48:35;19.60;54.60
39695;DHT22;25367;-35.352;149.036;2023-05-20T04:51:04;19.60;54.50
39695;DHT22;25367;-35.352;149.036;2023-05-20T04:53:37;19.60;54.60
39695;DHT22;25367;-35.352;149.036;2023-05-20T04:56:07;19.60;54.50
39695;DHT22;25367;-35.352;149.036;2023-05-20T04:58:36;19.60;54.50
39695;DHT22;25367;-35.352;149.036;2023-05-20T05:01:06;19.60;54.50
39695;DHT22;25367;-35.352;149.036;2023-05-20T05:03:36;19.60;54.60
39695;DHT22;25367;-35.352;149.036;2023-05-20T05:06:06;19.60;54.60
39695;DHT22;25367;-35.352;149.036;2023-05-20T05:08:39;19.60;54.50
39695;DHT22;25367;-35.352;149.036;2023-05-20T05:11:09;19.60;54.60
39695;DHT22;25367;-35.352;149.036;2023-05-20T05:13:38;19.60;54.60
39695;DHT22;25367;-35.352;149.036;2023-05-20T05:16:08;19.60;54.60
39695;DHT22;25367;-35.352;149.036;2023-05-20T05:18:38;19.60;54.60
39695;DHT22;25367;-35.352;149.036;2023-05-20T05:21:07;19.60;54.60
39695;DHT22;25367;-35.352;149.036;2023-05-20T05:23:41;19.60;54.50
39695;DHT22;25367;-35.352;149.036;2023-05-20T05:26:11;19.70;54.50
39695;DHT22;25367;-35.352;149.036;2023-05-20T05:28:42;19.60;54.50
39695;DHT22;25367;-35.352;149.036;2023-05-20T05:31:12;19.60;54.50
39695;DHT22;25367;-35.352;149.036;2023-05-20T05:33:42;19.60;54.50
39695;DHT22;25367;-35.352;149.036;2023-05-20T05:36:12;19.60;54.50
39695;DHT22;25367;-35.352;149.036;2023-05-20T05:38:44;19.70;54.50
39695;DHT22;25367;-35.352;149.036;2023-05-20T05:41:14;19.60;54.50
39695;DHT22;25367;-35.352;149.036;2023-05-20T05:43:44;19.60;54.70
39695;DHT22;25367;-35.352;149.036;2023-05-20T05:46:14;19.60;54.50
39695;DHT22;25367;-35.352;149.036;2023-05-20T05:48:45;19.60;54.60
39695;DHT22;25367;-35.352;149.036;2023-05-20T05:51:15;19.60;54.50
39695;DHT22;25367;-35.352;149.036;2023-05-20T05:53:46;19.60;54.50
39695;DHT22;25367;-35.352;149.036;2023-05-20T05:56:19;19.60;54.50
39695;DHT22;25367;-35.352;149.036;2023-05-20T05:58:49;19.60;54.50
39695;DHT22;25367;-35.352;149.036;2023-05-20T06:01:19;19.60;54.50
39695;DHT22;25367;-35.352;149.036;2023-05-20T06:03:48;19.60;54.50
39695;DHT22;25367;-35.352;149.036;2023-05-20T06:06:18;19.60;54.50
39695;DHT22;25367;-35.352;149.036;2023-05-20T06:08:49;19.60;54.50
39695;DHT22;25367;-35.352;149.036;2023-05-20T06:11:19;19.60;54.40
39695;DHT22;25367;-35.352;149.036;2023-05-20T06:13:50;19.60;54.30
39695;DHT22;25367;-35.352;149.036;2023-05-20T06:16:19;19.60;54.30
39695;DHT22;25367;-35.352;149.036;2023-05-20T06:18:49;19.60;54.30
39695;DHT22;25367;-35.352;149.036;2023-05-20T06:21:19;19.60;54.30
39695;DHT22;25367;-35.352;149.036;2023-05-20T06:23:50;19.60;54.30
39695;DHT22;25367;-35.352;149.036;2023-05-20T06:26:20;19.60;54.20
39695;DHT22;25367;-35.352;149.036;2023-05-20T06:28:50;19.60;54.20
39695;DHT22;25367;-35.352;149.036;2023-05-20T06:31:19;19.60;54.20
39695;DHT22;25367;-35.352;149.036;2023-05-20T06:33:50;19.60;54.20
39695;DHT22;25367;-35.352;149.036;2023-05-20T06:36:19;19.50;54.10
39695;DHT22;25367;-35.352;149.036;2023-05-20T06:38:51;19.60;54.20
39695;DHT22;25367;-35.352;149.036;2023-05-20T06:41:21;19.60;54.10
39695;DHT22;25367;-35.352;149.036;2023-05-20T06:43:53;19.50;54.10
39695;DHT22;25367;-35.352;149.036;2023-05-20T06:46:40;19.50;54.00
39695;DHT22;25367;-35.352;149.036;2023-05-20T06:49:14;19.50;54.10
39695;DHT22;25367;-35.352;149.036;2023-05-20T06:51:44;19.50;54.00
39695;DHT22;25367;-35.352;149.036;2023-05-20T06:54:15;19.40;54.00
39695;DHT22;25367;-35.352;149.036;2023-05-20T06:56:46;19.40;54.00
39695;DHT22;25367;-35.352;149.036;2023-05-20T06:59:16;19.40;53.90
39695;DHT22;25367;-35.352;149.036;2023-05-20T07:01:46;19.50;53.90
39695;DHT22;25367;-35.352;149.036;2023-05-20T07:04:16;19.40;53.80
39695;DHT22;25367;-35.352;149.036;2023-05-20T07:06:46;19.40;53.80
39695;DHT22;25367;-35.352;149.036;2023-05-20T07:09:17;19.40;53.70
39695;DHT22;25367;-35.352;149.036;2023-05-20T07:11:48;19.40;53.70
39695;DHT22;25367;-35.352;149.036;2023-05-20T07:14:19;19.30;53.60
39695;DHT22;25367;-35.352;149.036;2023-05-20T07:16:49;19.30;53.60
39695;DHT22;25367;-35.352;149.036;2023-05-20T07:19:19;19.30;53.50
39695;DHT22;25367;-35.352;149.036;2023-05-20T07:21:48;19.30;53.50
39695;DHT22;25367;-35.352;149.036;2023-05-20T07:24:37;19.30;53.40
39695;DHT22;25367;-35.352;149.036;2023-05-20T07:27:07;19.30;53.50
39695;DHT22;25367;-35.352;149.036;2023-05-20T07:29:38;19.20;53.40
39695;DHT22;25367;-35.352;149.036;2023-05-20T07:32:09;19.30;53.40
39695;DHT22;25367;-35.352;149.036;2023-05-20T07:34:39;19.30;53.20
39695;DHT22;25367;-35.352;149.036;2023-05-20T07:37:09;19.30;53.30
39695;DHT22;25367;-35.352;149.036;2023-05-20T07:39:41;19.20;53.20
39695;DHT22;25367;-35.352;149.036;2023-05-20T07:42:10;19.20;53.20
39695;DHT22;25367;-35.352;149.036;2023-05-20T07:44:43;19.20;53.10
39695;DHT22;25367;-35.352;149.036;2023-05-20T07:47:13;19.20;53.20
39695;DHT22;25367;-35.352;149.036;2023-05-20T07:49:43;19.10;53.10
39695;DHT22;25367;-35.352;149.036;2023-05-20T07:52:13;19.10;53.20
39695;DHT22;25367;-35.352;149.036;2023-05-20T07:54:45;19.10;53.30
39695;DHT22;25367;-35.352;149.036;2023-05-20T07:57:15;19.20;53.40
39695;DHT22;25367;-35.352;149.036;2023-05-20T07:59:44;19.20;53.60
39695;DHT22;25367;-35.352;149.036;2023-05-20T08:02:14;19.20;53.70
39695;DHT22;25367;-35.352;149.036;2023-05-20T08:04:44;19.20;53.80
39695;DHT22;25367;-35.352;149.036;2023-05-20T08:07:15;19.20;54.00
39695;DHT22;25367;-35.352;149.036;2023-05-20T08:09:56;19.30;54.20
39695;DHT22;25367;-35.352;149.036;2023-05-20T08:12:26;19.30;54.10
39695;DHT22;25367;-35.352;149.036;2023-05-20T08:14:56;19.30;54.00
39695;DHT22;25367;-35.352;149.036;2023-05-20T08:17:25;19.40;53.90
39695;DHT22;25367;-35.352;149.036;2023-05-20T08:19:56;19.40;53.90
39695;DHT22;25367;-35.352;149.036;2023-05-20T08:22:26;19.40;53.80
39695;DHT22;25367;-35.352;149.036;2023-05-20T08:24:57;19.40;53.80
39695;DHT22;25367;-35.352;149.036;2023-05-20T08:27:27;19.50;53.80
39695;DHT22;25367;-35.352;149.036;2023-05-20T08:29:57;19.40;53.70
39695;DHT22;25367;-35.352;149.036;2023-05-20T08:32:27;19.40;53.70
39695;DHT22;25367;-35.352;149.036;2023-05-20T08:34:57;19.50;53.70
39695;DHT22;25367;-35.352;149.036;2023-05-20T08:37:26;19.50;53.60
39695;DHT22;25367;-35.352;149.036;2023-05-20T08:39:58;19.50;53.60
39695;DHT22;25367;-35.352;149.036;2023-05-20T08:42:28;19.40;53.60
39695;DHT22;25367;-35.352;149.036;2023-05-20T08:44:59;19.50;53.60
39695;DHT22;25367;-35.352;149.036;2023-05-20T08:47:31;19.40;53.50
39695;DHT22;25367;-35.352;149.036;2023-05-20T08:50:01;19.40;53.50
39695;DHT22;25367;-35.352;149.036;2023-05-20T08:52:32;19.50;53.50
39695;DHT22;25367;-35.352;149.036;2023-05-20T08:55:05;19.40;53.50
39695;DHT22;25367;-35.352;149.036;2023-05-20T08:57:37;19.40;53.60
39695;DHT22;25367;-35.352;149.036;2023-05-20T09:00:07;19.40;53.60
39695;DHT22;25367;-35.352;149.036;2023-05-20T09:02:37;19.40;53.60
39695;DHT22;25367;-35.352;149.036;2023-05-20T09:05:08;19.40;53.60
39695;DHT22;25367;-35.352;149.036;2023-05-20T09:07:38;19.40;53.60
39695;DHT22;25367;-35.352;149.036;2023-05-20T09:10:10;19.40;53.50
39695;DHT22;25367;-35.352;149.036;2023-05-20T09:12:39;19.40;53.50
39695;DHT22;25367;-35.352;149.036;2023-05-20T09:15:10;19.40;53.50
39695;DHT22;25367;-35.352;149.036;2023-05-20T09:17:39;19.40;53.50
39695;DHT22;25367;-35.352;149.036;2023-05-20T09:20:10;19.40;53.50
39695;DHT22;25367;-35.352;149.036;2023-05-20T09:22:39;19.40;53.40
39695;DHT22;25367;-35.352;149.036;2023-05-20T09:25:12;19.30;53.30
39695;DHT22;25367;-35.352;149.036;2023-05-20T09:27:42;19.30;53.30
39695;DHT22;25367;-35.352;149.036;2023-05-20T09:30:12;19.30;53.30
39695;DHT22;25367;-35.352;149.036;2023-05-20T09:32:42;19.30;53.20
39695;DHT22;25367;-35.352;149.036;2023-05-20T09:35:14;19.30;53.20
39695;DHT22;25367;-35.352;149.036;2023-05-20T09:37:46;19.30;53.20
39695;DHT22;25367;-35.352;149.036;2023-05-20T09:40:22;19.30;53.10
39695;DHT22;25367;-35.352;149.036;2023-05-20T09:42:53;19.20;53.10
39695;DHT22;25367;-35.352;149.036;2023-05-20T09:45:24;19.20;53.10
39695;DHT22;25367;-35.352;149.036;2023-05-20T09:47:54;19.20;53.10
39695;DHT22;25367;-35.352;149.036;2023-05-20T09:50:24;19.20;53.00
39695;DHT22;25367;-35.352;149.036;2023-05-20T09:52:55;19.20;52.90
39695;DHT22;25367;-35.352;149.036;2023-05-20T09:55:27;19.20;52.90
39695;DHT22;25367;-35.352;149.036;2023-05-20T09:57:57;19.20;52.90
39695;DHT22;25367;-35.352;149.036;2023-05-20T10:00:27;19.10;52.90
39695;DHT22;25367;-35.352;149.036;2023-05-20T10:02:57;19.20;52.90
39695;DHT22;25367;-35.352;149.036;2023-05-20T10:05:28;19.10;52.90
39695;DHT22;25367;-35.352;149.036;2023-05-20T10:08:22;19.10;52.90
39695;DHT22;25367;-35.352;149.036;2023-05-20T10:11:14;19.10;52.90
39695;DHT22;25367;-35.352;149.036;2023-05-20T10:13:58;19.10;53.00
39695;DHT22;25367;-35.352;149.036;2023-05-20T10:16:37;19.10;53.00
39695;DHT22;25367;-35.352;149.036;2023-05-20T10:19:21;19.10;53.00
39695;DHT22;25367;-35.352;149.036;2023-05-20T10:22:01;19.10;53.00
39695;DHT22;25367;-35.352;149.036;2023-05-20T10:24:32;19.00;53.00
39695;DHT22;25367;-35.352;149.036;2023-05-20T10:27:07;19.00;52.90
39695;DHT22;25367;-35.352;149.036;2023-05-20T10:29:44;19.00;52.90
39695;DHT22;25367;-35.352;149.036;2023-05-20T10:32:25;19.00;53.00
39695;DHT22;25367;-35.352;149.036;2023-05-20T10:34:59;19.00;53.00
39695;DHT22;25367;-35.352;149.036;2023-05-20T10:37:30;19.00;53.10
39695;DHT22;25367;-35.352;149.036;2023-05-20T10:40:10;19.00;53.10
39695;DHT22;25367;-35.352;149.036;2023-05-20T10:42:43;19.00;53.10
39695;DHT22;25367;-35.352;149.036;2023-05-20T10:45:23;19.00;53.30
39695;DHT22;25367;-35.352;149.036;2023-05-20T10:47:59;19.00;53.40
39695;DHT22;25367;-35.352;149.036;2023-05-20T10:50:32;19.00;53.60
39695;DHT22;25367;-35.352;149.036;2023-05-20T10:53:06;19.10;53.80
39695;DHT22;25367;-35.352;149.036;2023-05-20T10:55:40;19.10;53.90
39695;DHT22;25367;-35.352;149.036;2023-05-20T10:58:18;19.10;53.80
39695;DHT22;25367;-35.352;149.036;2023-05-20T11:00:49;19.20;53.80
39695;DHT22;25367;-35.352;149.036;2023-05-20T11:03:18;19.20;53.70
39695;DHT22;25367;-35.352;149.036;2023-05-20T11:05:50;19.30;53.60
39695;DHT22;25367;-35.352;149.036;2023-05-20T11:08:20;19.30;53.50
39695;DHT22;25367;-35.352;149.036;2023-05-20T11:10:49;19.30;53.40
39695;DHT22;25367;-35.352;149.036;2023-05-20T11:13:22;19.30;53.40
39695;DHT22;25367;-35.352;149.036;2023-05-20T11:15:53;19.40;53.30
39695;DHT22;25367;-35.352;149.036;2023-05-20T11:18:22;19.30;53.20
39695;DHT22;25367;-35.352;149.036;2023-05-20T11:20:52;19.40;53.20
39695;DHT22;25367;-35.352;149.036;2023-05-20T11:23:21;19.40;53.20
39695;DHT22;25367;-35.352;149.036;2023-05-20T11:25:51;19.30;53.10
39695;DHT22;25367;-35.352;149.036;2023-05-20T11:28:24;19.40;53.10
39695;DHT22;25367;-35.352;149.036;2023-05-20T11:30:54;19.40;53.10
39695;DHT22;25367;-35.352;149.036;2023-05-20T11:33:25;19.30;53.00
39695;DHT22;25367;-35.352;149.036;2023-05-20T11:35:55;19.40;53.10
39695;DHT22;25367;-35.352;149.036;2023-05-20T11:38:24;19.40;53.00
39695;DHT22;25367;-35.352;149.036;2023-05-20T11:40:54;19.40;53.00
39695;DHT22;25367;-35.352;149.036;2023-05-20T11:43:27;19.40;53.00
39695;DHT22;25367;-35.352;149.036;2023-05-20T11:45:57;19.40;52.90
39695;DHT22;25367;-35.352;149.036;2023-05-20T11:48:27;19.30;52.80
39695;DHT22;25367;-35.352;149.036;2023-05-20T11:50:56;19.30;52.80
39695;DHT22;25367;-35.352;149.036;2023-05-20T11:53:26;19.30;52.70
39695;DHT22;25367;-35.352;149.036;2023-05-20T11:55:56;19.30;52.80
39695;DHT22;25367;-35.352;149.036;2023-05-20T11:58:30;19.30;52.70
39695;DHT22;25367;-35.352;149.036;2023-05-20T12:00:59;19.30;52.70
39695;DHT22;25367;-35.352;149.036;2023-05-20T12:03:29;19.30;52.70
39695;DHT22;25367;-35.352;149.036;2023-05-20T12:06:00;19.30;52.60
39695;DHT22;25367;-35.352;149.036;2023-05-20T12:08:30;19.30;52.60
39695;DHT22;25367;-35.352;149.036;2023-05-20T12:11:00;19.20;52.50
39695;DHT22;25367;-35.352;149.036;2023-05-20T12:13:33;19.30;52.50
39695;DHT22;25367;-35.352;149.036;2023-05-20T12:16:02;19.30;52.60
39695;DHT22;25367;-35.352;149.036;2023-05-20T12:18:32;19.20;52.50
39695;DHT22;25367;-35.352;149.036;2023-05-20T12:21:01;19.30;52.50
39695;DHT22;25367;-35.352;149.036;2023-05-20T12:23:31;19.30;52.50
39695;DHT22;25367;-35.352;149.036;2023-05-20T12:26:00;19.20;52.40
39695;DHT22;25367;-35.352;149.036;2023-05-20T12:28:33;19.20;52.40
39695;DHT22;25367;-35.352;149.036;2023-05-20T12:31:02;19.20;52.40
39695;DHT22;25367;-35.352;149.036;2023-05-20T12:33:32;19.20;52.40
39695;DHT22;25367;-35.352;149.036;2023-05-20T12:36:01;19.20;52.50
39695;DHT22;25367;-35.352;149.036;2023-05-20T12:38:31;19.20;52.60
39695;DHT22;25367;-35.352;149.036;2023-05-20T12:41:00;19.20;52.70
39695;DHT22;25367;-35.352;149.036;2023-05-20T12:43:33;19.20;52.80
39695;DHT22;25367;-35.352;149.036;2023-05-20T12:46:02;19.20;52.80
39695;DHT22;25367;-35.352;149.036;2023-05-20T12:48:31;19.20;52.80
39695;DHT22;25367;-35.352;149.036;2023-05-20T12:51:01;19.10;52.80
39695;DHT22;25367;-35.352;149.036;2023-05-20T12:53:30;19.20;52.70
39695;DHT22;25367;-35.352;149.036;2023-05-20T12:56:00;19.20;52.60
39695;DHT22;25367;-35.352;149.036;2023-05-20T12:58:32;19.20;52.50
39695;DHT22;25367;-35.352;149.036;2023-05-20T13:01:02;19.20;52.50
39695;DHT22;25367;-35.352;149.036;2023-05-20T13:03:31;19.20;52.50
39695;DHT22;25367;-35.352;149.036;2023-05-20T13:06:01;19.20;52.50
39695;DHT22;25367;-35.352;149.036;2023-05-20T13:08:30;19.20;52.60
39695;DHT22;25367;-35.352;149.036;2023-05-20T13:11:00;19.20;52.50
39695;DHT22;25367;-35.352;149.036;2023-05-20T13:13:32;19.20;52.50
39695;DHT22;25367;-35.352;149.036;2023-05-20T13:16:01;19.20;52.50
39695;DHT22;25367;-35.352;149.036;2023-05-20T13:18:31;19.20;52.50
39695;DHT22;25367;-35.352;149.036;2023-05-20T13:21:00;19.20;52.40
39695;DHT22;25367;-35.352;149.036;2023-05-20T13:23:30;19.20;52.40
39695;DHT22;25367;-35.352;149.036;2023-05-20T13:25:59;19.20;52.40
39695;DHT22;25367;-35.352;149.036;2023-05-20T13:28:32;19.20;52.40
39695;DHT22;25367;-35.352;149.036;2023-05-20T13:31:03;19.20;52.30
39695;DHT22;25367;-35.352;149.036;2023-05-20T13:33:33;19.20;52.30
39695;DHT22;25367;-35.352;149.036;2023-05-20T13:36:03;19.10;52.30
39695;DHT22;25367;-35.352;149.036;2023-05-20T13:38:32;19.10;52.20
39695;DHT22;25367;-35.352;149.036;2023-05-20T13:41:02;19.10;52.30
39695;DHT22;25367;-35.352;149.036;2023-05-20T13:43:35;19.10;52.30
39695;DHT22;25367;-35.352;149.036;2023-05-20T13:46:04;19.10;52.30
39695;DHT22;25367;-35.352;149.036;2023-05-20T22:39:17;15.20;55.10
39695;DHT22;25367;-35.352;149.036;2023-05-20T22:41:46;15.30;56.70
39695;DHT22;25367;-35.352;149.036;2023-05-20T22:44:16;15.40;56.70
39695;DHT22;25367;-35.352;149.036;2023-05-20T22:46:45;15.60;56.60
39695;DHT22;25367;-35.352;149.036;2023-05-20T22:49:15;15.70;56.50
39695;DHT22;25367;-35.352;149.036;2023-05-20T22:51:44;15.80;56.30
39695;DHT22;25367;-35.352;149.036;2023-05-20T22:54:17;15.90;56.20
